createdAt,value
2018-06-27T00:01:31.916Z,97468.20
2018-06-27T00:03:59.048Z,97466.84
2018-06-27T00:06:26.209Z,97460.69
2018-06-27T00:08:53.337Z,97466.20
2018-06-27T00:11:20.494Z,97465.88
2018-06-27T00:13:47.588Z,97460.48
2018-06-27T00:16:14.755Z,97460.00
2018-06-27T00:18:41.900Z,97459.82
2018-06-27T00:21:09.032Z,97456.05
2018-06-27T00:23:36.177Z,97459.39
2018-06-27T00:26:03.325Z,97452.33
2018-06-27T00:28:30.476Z,97445.69
2018-06-27T00:30:57.577Z,97445.25
2018-06-27T00:33:24.719Z,97444.19
2018-06-27T00:35:51.936Z,97439.10
2018-06-27T00:38:19.090Z,97444.30
2018-06-27T00:40:46.304Z,97440.97
2018-06-27T00:43:14.212Z,97440.23
2018-06-27T00:45:41.370Z,97441.53
2018-06-27T00:48:09.029Z,97441.34
2018-06-27T00:50:36.213Z,97441.15
2018-06-27T00:53:03.469Z,97432.03
2018-06-27T00:55:30.787Z,97443.55
2018-06-27T00:57:58.000Z,97445.36
2018-06-27T01:00:25.134Z,97443.88
2018-06-27T01:02:52.352Z,97443.48
2018-06-27T01:05:19.473Z,97444.55
2018-06-27T01:07:46.584Z,97439.50
2018-06-27T01:10:13.737Z,97438.41
2018-06-27T01:12:40.856Z,97425.49
2018-06-27T01:15:08.029Z,97426.45
2018-06-27T01:17:35.162Z,97423.89
2018-06-27T01:20:02.612Z,97428.05
2018-06-27T01:22:29.746Z,97419.98
2018-06-27T01:24:56.857Z,97430.17
2018-06-27T01:27:24.000Z,97433.20
2018-06-27T01:29:51.185Z,97422.74
2018-06-27T01:32:18.297Z,97418.17
2018-06-27T01:34:45.453Z,97412.80
2018-06-27T01:37:12.584Z,97414.42
2018-06-27T01:39:39.681Z,97413.73
2018-06-27T01:42:06.829Z,97411.30
2018-06-27T01:44:34.005Z,97410.62
2018-06-27T01:47:01.166Z,97412.27
2018-06-27T01:49:28.306Z,97411.09
2018-06-27T01:51:55.452Z,97414.44
2018-06-27T01:54:22.556Z,97414.94
2018-06-27T01:56:49.717Z,97414.16
2018-06-27T01:59:16.886Z,97409.56
2018-06-27T02:01:44.027Z,97405.61
2018-06-27T02:04:11.174Z,97414.77
2018-06-27T02:06:38.280Z,97405.95
2018-06-27T02:09:07.045Z,97411.77
2018-06-27T02:11:34.160Z,97422.30
2018-06-27T02:14:01.347Z,97416.91
2018-06-27T02:16:28.452Z,97420.30
2018-06-27T02:18:55.652Z,97417.97
2018-06-27T02:21:22.840Z,97423.22
2018-06-27T02:23:50.005Z,97424.00
2018-06-27T02:26:17.113Z,97417.73
2018-06-27T02:28:44.364Z,97421.66
2018-06-27T02:31:11.521Z,97416.64
2018-06-27T02:33:38.636Z,97415.93
2018-06-27T02:36:05.989Z,97413.64
2018-06-27T02:38:33.109Z,97420.84
2018-06-27T02:41:00.297Z,97418.84
2018-06-27T02:43:27.404Z,97417.27
2018-06-27T02:45:54.577Z,97417.97
2018-06-27T02:48:21.777Z,97417.16
2018-06-27T02:50:48.901Z,97421.05
2018-06-27T02:53:16.070Z,97420.66
2018-06-27T02:55:43.324Z,97416.61
2018-06-27T02:58:10.452Z,97420.56
2018-06-27T03:00:37.578Z,97421.52
2018-06-27T03:03:04.894Z,97423.63
2018-06-27T03:05:32.052Z,97420.02
2018-06-27T03:07:59.276Z,97425.39
2018-06-27T03:10:26.421Z,97404.58
2018-06-27T03:12:53.580Z,97414.11
2018-06-27T03:15:20.713Z,97413.16
2018-06-27T03:17:47.884Z,97427.16
2018-06-27T03:20:15.098Z,97433.37
2018-06-27T03:22:42.193Z,97427.39
2018-06-27T03:25:09.328Z,97424.09
2018-06-27T03:27:36.428Z,97430.93
2018-06-27T03:30:03.937Z,97423.94
2018-06-27T03:32:31.149Z,97424.64
2018-06-27T03:34:58.248Z,97431.19
2018-06-27T03:37:25.420Z,97428.16
2018-06-27T03:39:52.573Z,97430.89
2018-06-27T03:42:19.783Z,97434.80
2018-06-27T03:44:46.909Z,97436.27
2018-06-27T03:47:14.033Z,97437.68
2018-06-27T03:49:41.175Z,97433.93
2018-06-27T03:52:08.385Z,97445.09
2018-06-27T03:54:35.494Z,97442.67
2018-06-27T03:57:02.603Z,97439.09
2018-06-27T03:59:29.773Z,97440.56
2018-06-27T04:01:56.932Z,97440.22
2018-06-27T04:04:24.078Z,97438.29
2018-06-27T04:06:51.257Z,97437.34
2018-06-27T04:09:18.366Z,97444.20
2018-06-27T04:11:45.453Z,97438.23
2018-06-27T04:14:12.581Z,97439.33
2018-06-27T04:16:39.779Z,97431.81
2018-06-27T04:19:06.921Z,97435.03
2018-06-27T04:21:34.053Z,97444.02
2018-06-27T04:24:01.204Z,97436.83
2018-06-27T04:26:28.336Z,97434.11
2018-06-27T04:28:55.570Z,97431.77
2018-06-27T04:31:22.692Z,97431.15
2018-06-27T04:33:49.869Z,97425.16
2018-06-27T04:36:17.074Z,97434.42
2018-06-27T04:38:44.240Z,97429.20
2018-06-27T04:41:11.358Z,97427.31
2018-06-27T04:43:38.476Z,97429.05
2018-06-27T04:46:05.620Z,97431.35
2018-06-27T04:48:39.783Z,97427.10
2018-06-27T04:51:06.957Z,97421.98
2018-06-27T04:53:34.021Z,97424.13
2018-06-27T04:56:01.214Z,97424.71
2018-06-27T04:58:28.293Z,97416.19
2018-06-27T05:00:55.429Z,97424.55
2018-06-27T05:03:22.565Z,97426.33
2018-06-27T05:05:49.669Z,97426.13
2018-06-27T05:08:16.788Z,97429.69
2018-06-27T05:10:43.894Z,97427.36
2018-06-27T05:13:10.973Z,97425.00
2018-06-27T05:15:38.139Z,97424.84
2018-06-27T05:18:05.261Z,97429.80
2018-06-27T05:20:32.429Z,97431.02
2018-06-27T05:22:59.521Z,97433.91
2018-06-27T05:25:26.664Z,97432.69
2018-06-27T05:27:53.827Z,97430.91
2018-06-27T05:30:20.957Z,97439.22
2018-06-27T05:32:48.116Z,97434.75
2018-06-27T05:35:15.278Z,97435.30
2018-06-27T05:37:42.503Z,97437.65
2018-06-27T05:40:09.712Z,97445.95
2018-06-27T05:42:36.911Z,97444.80
2018-06-27T05:45:04.329Z,97451.23
2018-06-27T05:47:31.443Z,97460.36
2018-06-27T05:49:58.580Z,97452.30
2018-06-27T05:52:25.755Z,97450.98
2018-06-27T05:54:58.704Z,97451.91
2018-06-27T05:57:25.856Z,97453.55
2018-06-27T05:59:53.007Z,97449.61
2018-06-27T06:02:20.192Z,97446.95
2018-06-27T06:04:47.480Z,97452.46
2018-06-27T06:07:14.580Z,97459.66
2018-06-27T06:09:41.666Z,97455.92
2018-06-27T06:12:08.817Z,97458.62
2018-06-27T06:14:35.956Z,97451.63
2018-06-27T06:17:03.072Z,97459.53
2018-06-27T06:19:30.174Z,97463.11
2018-06-27T06:21:58.206Z,97462.91
2018-06-27T06:24:25.375Z,97450.58
2018-06-27T06:26:52.544Z,97458.40
2018-06-27T06:29:19.683Z,97458.01
2018-06-27T06:31:46.832Z,97454.86
2018-06-27T06:34:13.949Z,97458.68
2018-06-27T06:36:41.131Z,97461.23
2018-06-27T06:39:08.703Z,97463.02
2018-06-27T06:41:35.940Z,97466.47
2018-06-27T06:44:03.416Z,97463.41
2018-06-27T06:46:30.548Z,97466.80
2018-06-27T06:48:57.637Z,97462.30
2018-06-27T06:51:24.844Z,97461.27
2018-06-27T06:53:51.999Z,97465.06
2018-06-27T06:56:19.104Z,97470.46
2018-06-27T06:58:48.997Z,97469.65
2018-06-27T07:01:16.085Z,97470.41
2018-06-27T07:03:43.222Z,97468.11
2018-06-27T07:06:10.364Z,97471.42
2018-06-27T07:08:37.485Z,97474.73
2018-06-27T07:11:04.664Z,97477.83
2018-06-27T07:13:31.745Z,97475.88
2018-06-27T07:15:58.904Z,97465.55
2018-06-27T07:18:26.469Z,97468.93
2018-06-27T07:20:53.655Z,97470.53
2018-06-27T07:23:20.796Z,97462.94
2018-06-27T07:25:47.952Z,97462.96
2018-06-27T07:28:15.097Z,97466.59
2018-06-27T07:30:42.345Z,97465.14
2018-06-27T07:33:09.497Z,97454.86
2018-06-27T07:35:36.704Z,97462.16
2018-06-27T07:38:03.853Z,97466.39
2018-06-27T07:40:31.017Z,97460.00
2018-06-27T07:42:58.145Z,97461.27
2018-06-27T07:45:25.297Z,97462.13
2018-06-27T07:47:52.432Z,97467.24
2018-06-27T07:50:19.658Z,97470.97
2018-06-27T07:52:46.828Z,97460.42
2018-06-27T07:55:13.984Z,97462.69
2018-06-27T07:57:41.149Z,97468.16
2018-06-27T08:00:08.797Z,97466.39
2018-06-27T08:02:35.925Z,97469.11
2018-06-27T08:05:03.280Z,97468.60
2018-06-27T08:07:30.376Z,97462.19
2018-06-27T08:09:57.540Z,97473.74
2018-06-27T08:12:24.731Z,97468.97
2018-06-27T08:14:51.799Z,97462.83
2018-06-27T08:17:18.997Z,97469.89
2018-06-27T08:19:46.113Z,97464.77
2018-06-27T08:22:13.269Z,97468.91
2018-06-27T08:24:40.416Z,97459.38
2018-06-27T08:27:07.576Z,97454.89
2018-06-27T08:29:34.758Z,97458.80
2018-06-27T08:32:01.934Z,97456.16
2018-06-27T08:34:29.037Z,97456.19
2018-06-27T08:36:56.213Z,97449.56
2018-06-27T08:39:23.379Z,97454.38
2018-06-27T08:41:50.534Z,97446.53
2018-06-27T08:44:17.676Z,97438.72
2018-06-27T08:46:44.828Z,97451.94
2018-06-27T08:49:11.964Z,97441.00
2018-06-27T08:51:39.153Z,97445.47
2018-06-27T08:54:06.309Z,97440.36
2018-06-27T08:56:33.468Z,97435.38
2018-06-27T08:59:00.670Z,97436.30
2018-06-27T09:01:27.845Z,97432.23
2018-06-27T09:03:55.041Z,97431.52
2018-06-27T09:06:22.275Z,97429.31
2018-06-27T09:08:49.432Z,97429.41
2018-06-27T09:11:16.573Z,97423.61
2018-06-27T09:13:43.738Z,97430.23
2018-06-27T09:16:10.917Z,97424.14
2018-06-27T09:18:38.117Z,97416.34
2018-06-27T09:21:05.281Z,97415.37
2018-06-27T09:23:32.446Z,97419.77
2018-06-27T09:25:59.599Z,97425.50
2018-06-27T09:28:26.701Z,97426.28
2018-06-27T09:30:53.849Z,97423.56
2018-06-27T09:33:20.958Z,97421.80
2018-06-27T09:35:48.086Z,97426.17
2018-06-27T09:38:15.213Z,97423.27
2018-06-27T09:40:42.409Z,97432.42
2018-06-27T09:43:09.549Z,97433.89
2018-06-27T09:45:36.697Z,97430.51
2018-06-27T09:48:03.859Z,97431.75
2018-06-27T09:50:31.004Z,97435.38
2018-06-27T09:52:58.105Z,97432.89
2018-06-27T09:55:25.268Z,97437.85
2018-06-27T09:57:52.418Z,97444.66
2018-06-27T10:00:25.294Z,97444.70
2018-06-27T10:02:52.480Z,97447.23
2018-06-27T10:05:19.648Z,97451.30
2018-06-27T10:07:46.835Z,97445.81
2018-06-27T10:10:13.921Z,97446.93
2018-06-27T10:12:41.093Z,97450.75
2018-06-27T10:15:08.602Z,97447.89
2018-06-27T10:17:35.736Z,97447.63
2018-06-27T10:20:03.189Z,97441.66
2018-06-27T10:22:30.413Z,97438.20
2018-06-27T10:24:57.425Z,97439.13
2018-06-27T10:27:24.595Z,97430.47
2018-06-27T10:29:51.756Z,97431.50
2018-06-27T10:32:18.925Z,97422.91
2018-06-27T10:34:46.059Z,97424.46
2018-06-27T10:37:13.256Z,97428.30
2018-06-27T10:39:40.379Z,97427.92
2018-06-27T10:42:07.558Z,97428.69
2018-06-27T10:44:34.777Z,97429.59
2018-06-27T10:47:01.982Z,97423.61
2018-06-27T10:49:29.140Z,97423.75
2018-06-27T10:51:56.317Z,97433.39
2018-06-27T10:54:23.452Z,97433.03
2018-06-27T10:56:50.738Z,97420.27
2018-06-27T10:59:17.977Z,97434.20
2018-06-27T11:01:45.121Z,97434.75
2018-06-27T11:04:12.254Z,97439.15
2018-06-27T11:06:39.486Z,97440.20
2018-06-27T11:09:07.288Z,97437.78
2018-06-27T11:11:34.478Z,97443.14
2018-06-27T11:14:01.748Z,97444.52
2018-06-27T11:16:28.809Z,97437.72
2018-06-27T11:18:55.955Z,97433.83
2018-06-27T11:21:23.071Z,97427.64
2018-06-27T11:23:50.214Z,97426.47
2018-06-27T11:26:17.393Z,97426.45
2018-06-27T11:28:44.588Z,97431.00
2018-06-27T11:31:11.734Z,97423.30
2018-06-27T11:33:38.930Z,97419.80
2018-06-27T11:36:06.122Z,97414.74
2018-06-27T11:38:33.383Z,97410.83
2018-06-27T11:41:00.529Z,97417.36
2018-06-27T11:43:27.649Z,97413.47
2018-06-27T11:45:55.116Z,97424.27
2018-06-27T11:48:22.328Z,97411.91
2018-06-27T11:50:49.485Z,97420.72
2018-06-27T11:53:16.690Z,97421.86
2018-06-27T11:55:43.765Z,97418.94
2018-06-27T11:58:10.932Z,97417.24
2018-06-27T12:00:38.094Z,97415.20
2018-06-27T12:03:05.286Z,97418.08
2018-06-27T12:05:32.444Z,97412.27
2018-06-27T12:07:59.613Z,97414.80
2018-06-27T12:10:26.735Z,97416.89
2018-06-27T12:12:53.917Z,97405.88
2018-06-27T12:15:21.065Z,97409.59
2018-06-27T12:17:48.257Z,97402.38
2018-06-27T12:20:15.552Z,97404.14
2018-06-27T12:22:42.708Z,97407.14
2018-06-27T12:25:09.856Z,97402.83
2018-06-27T12:27:37.042Z,97413.21
2018-06-27T12:30:04.541Z,97409.59
2018-06-27T12:32:31.870Z,97400.91
2018-06-27T12:34:58.923Z,97410.37
2018-06-27T12:37:26.100Z,97408.80
2018-06-27T12:39:53.249Z,97408.78
2018-06-27T12:42:20.460Z,97407.48
2018-06-27T12:44:47.611Z,97402.42
2018-06-27T12:47:14.876Z,97399.33
2018-06-27T12:49:42.025Z,97400.48
2018-06-27T12:52:09.224Z,97384.45
2018-06-27T12:54:36.448Z,97390.28
2018-06-27T12:57:03.617Z,97397.21
2018-06-27T12:59:30.737Z,97392.56
2018-06-27T13:01:57.852Z,97390.47
2018-06-27T13:04:24.965Z,97384.08
2018-06-27T13:06:52.096Z,97381.22
2018-06-27T13:09:19.350Z,97385.45
2018-06-27T13:11:46.497Z,97385.86
2018-06-27T13:14:13.662Z,97389.13
2018-06-27T13:16:40.808Z,97389.09
2018-06-27T13:19:08.009Z,97392.84
2018-06-27T13:21:35.132Z,97390.80
2018-06-27T13:24:02.322Z,97385.17
2018-06-27T13:26:29.493Z,97388.60
2018-06-27T13:28:56.703Z,97378.97
2018-06-27T13:31:24.239Z,97385.84
2018-06-27T13:33:51.469Z,97385.37
2018-06-27T13:36:18.662Z,97383.85
2018-06-27T13:38:45.851Z,97400.02
2018-06-27T13:41:12.998Z,97394.19
2018-06-27T13:43:40.179Z,97403.94
2018-06-27T13:46:07.391Z,97405.75
2018-06-27T13:48:34.536Z,97407.75
2018-06-27T13:51:01.748Z,97404.73
2018-06-27T13:53:28.924Z,97399.49
2018-06-27T13:55:56.060Z,97399.70
2018-06-27T13:58:23.204Z,97390.77
2018-06-27T14:00:50.464Z,97390.27
2018-06-27T14:03:17.613Z,97385.41
2018-06-27T14:05:44.768Z,97388.22
2018-06-27T14:08:11.927Z,97397.03
2018-06-27T14:10:39.092Z,97400.58
2018-06-27T14:13:06.276Z,97400.41
2018-06-27T14:15:33.437Z,97401.86
2018-06-27T14:18:00.677Z,97398.58
2018-06-27T14:20:28.030Z,97400.30
2018-06-27T14:22:55.170Z,97390.30
2018-06-27T14:25:22.324Z,97382.78
2018-06-27T14:27:49.504Z,97384.52
2018-06-27T14:30:16.628Z,97384.88
2018-06-27T14:32:43.745Z,97375.83
2018-06-27T14:35:10.870Z,97368.68
2018-06-27T14:37:38.004Z,97362.25
2018-06-27T14:40:05.397Z,97365.01
2018-06-27T14:42:32.453Z,97359.23
2018-06-27T14:44:59.624Z,97356.24
2018-06-27T14:47:26.829Z,97363.26
2018-06-27T14:49:54.007Z,97372.22
2018-06-27T14:52:21.251Z,97363.84
2018-06-27T14:54:49.015Z,97372.69
2018-06-27T14:57:16.214Z,97375.25
2018-06-27T14:59:43.498Z,97373.86
2018-06-27T15:02:10.600Z,97374.90
2018-06-27T15:04:37.736Z,97369.42
2018-06-27T15:07:04.940Z,97372.78
2018-06-27T15:09:32.065Z,97374.95
2018-06-27T15:11:59.193Z,97384.30
2018-06-27T15:14:26.352Z,97389.76
2018-06-27T15:16:53.544Z,97380.45
2018-06-27T15:19:20.721Z,97382.18
2018-06-27T15:21:47.983Z,97381.03
2018-06-27T15:24:15.133Z,97378.37
2018-06-27T15:26:42.381Z,97381.86
2018-06-27T15:29:09.616Z,97378.31
2018-06-27T15:31:36.774Z,97381.20
2018-06-27T15:34:03.942Z,97378.84
2018-06-27T15:36:31.135Z,97368.92
2018-06-27T15:38:58.270Z,97369.94
2018-06-27T15:41:25.435Z,97376.59
2018-06-27T15:43:52.884Z,97373.59
2018-06-27T15:46:20.098Z,97385.39
2018-06-27T15:48:47.284Z,97383.27
2018-06-27T15:51:14.433Z,97373.97
2018-06-27T15:53:41.569Z,97380.83
2018-06-27T15:56:08.728Z,97380.75
2018-06-27T15:58:35.825Z,97384.03
2018-06-27T16:01:03.072Z,97386.00
2018-06-27T16:03:30.272Z,97394.77
2018-06-27T16:05:57.401Z,97389.73
2018-06-27T16:08:24.571Z,97387.59
2018-06-27T16:10:51.759Z,97392.45
2018-06-27T16:13:18.990Z,97387.14
2018-06-27T16:15:46.206Z,97387.64
2018-06-27T16:18:13.429Z,97383.41
2018-06-27T16:20:40.626Z,97388.91
2018-06-27T16:23:07.859Z,97392.05
2018-06-27T16:25:34.993Z,97388.31
2018-06-27T16:28:02.135Z,97380.55
2018-06-27T16:30:29.356Z,97380.00
2018-06-27T16:32:56.490Z,97375.42
2018-06-27T16:35:23.713Z,97380.78
2018-06-27T16:37:50.917Z,97380.48
2018-06-27T16:40:18.077Z,97382.09
2018-06-27T16:42:45.243Z,97380.75
2018-06-27T16:45:12.477Z,97388.23
2018-06-27T16:47:39.653Z,97385.07
2018-06-27T16:50:07.499Z,97389.00
2018-06-27T16:52:34.685Z,97391.88
2018-06-27T16:55:01.869Z,97389.25
2018-06-27T16:57:29.157Z,97391.30
2018-06-27T16:59:56.292Z,97391.11
2018-06-27T17:02:23.400Z,97392.92
2018-06-27T17:04:50.578Z,97399.47
2018-06-27T17:07:17.749Z,97403.77
2018-06-27T17:09:44.890Z,97398.12
2018-06-27T17:12:12.123Z,97399.78
2018-06-27T17:14:39.241Z,97406.12
2018-06-27T17:17:06.468Z,97396.95
2018-06-27T17:19:33.628Z,97396.48
2018-06-27T17:22:00.815Z,97398.34
2018-06-27T17:24:28.013Z,97404.83
2018-06-27T17:26:55.161Z,97397.88
2018-06-27T17:29:22.312Z,97400.12
2018-06-27T17:31:49.489Z,97401.05
2018-06-27T17:34:16.631Z,97401.66
2018-06-27T17:36:43.860Z,97404.83
2018-06-27T17:39:11.041Z,97409.87
2018-06-27T17:41:38.812Z,97407.40
2018-06-27T17:44:06.131Z,97406.73
2018-06-27T17:46:33.317Z,97407.52
2018-06-27T17:49:00.494Z,97402.47
2018-06-27T17:51:27.687Z,97407.03
2018-06-27T17:53:54.845Z,97402.87
2018-06-27T17:56:21.971Z,97401.16
2018-06-27T17:58:49.137Z,97399.70
2018-06-27T18:01:16.314Z,97395.31
2018-06-27T18:06:10.061Z,97397.33
2018-06-27T18:08:37.316Z,97395.41
2018-06-27T18:11:04.461Z,97396.95
2018-06-27T18:13:31.606Z,97399.11
2018-06-27T18:15:58.733Z,97395.25
2018-06-27T18:18:25.937Z,97400.06
2018-06-27T18:23:19.702Z,97394.06
2018-06-27T18:25:46.905Z,97390.05
2018-06-27T18:28:14.044Z,97385.57
2018-06-27T18:30:41.205Z,97392.80
2018-06-27T18:33:08.364Z,97384.27
2018-06-27T18:35:35.505Z,97387.61
2018-06-27T18:38:02.694Z,97394.69
2018-06-27T18:40:29.832Z,97398.14
2018-06-27T18:42:56.972Z,97397.63
2018-06-27T18:47:50.693Z,97404.23
2018-06-27T18:50:17.849Z,97400.20
2018-06-27T18:52:44.988Z,97410.95
2018-06-27T18:55:12.178Z,97412.05
2018-06-27T18:57:39.304Z,97415.92
2018-06-27T19:00:07.967Z,97414.31
2018-06-27T19:02:35.152Z,97415.08
2018-06-27T19:05:02.470Z,97418.70
2018-06-27T19:07:29.645Z,97418.03
2018-06-27T19:09:56.801Z,97418.14
2018-06-27T19:12:24.011Z,97424.70
2018-06-27T19:14:51.121Z,97426.60
2018-06-27T19:17:18.292Z,97431.41
2018-06-27T19:19:45.408Z,97431.95
2018-06-27T19:22:12.597Z,97437.24
2018-06-27T19:24:39.693Z,97436.05
2018-06-27T19:27:06.864Z,97441.16
2018-06-27T19:29:34.068Z,97438.27
2018-06-27T19:32:01.231Z,97441.38
2018-06-27T19:34:28.394Z,97440.92
2018-06-27T19:36:55.557Z,97440.85
2018-06-27T19:39:22.765Z,97436.73
2018-06-27T19:41:49.948Z,97446.63
2018-06-27T19:44:17.057Z,97440.53
2018-06-27T19:46:44.254Z,97439.97
2018-06-27T19:49:11.361Z,97441.75
2018-06-27T19:51:38.617Z,97442.88
2018-06-27T19:54:05.793Z,97446.98
2018-06-27T19:56:32.975Z,97447.37
2018-06-27T19:59:00.116Z,97445.48
2018-06-27T20:01:27.300Z,97446.47
2018-06-27T20:03:54.492Z,97454.80
2018-06-27T20:06:21.617Z,97453.00
2018-06-27T20:08:48.788Z,97456.14
2018-06-27T20:11:15.917Z,97464.00
2018-06-27T20:13:43.057Z,97465.45
2018-06-27T20:16:10.185Z,97461.45
2018-06-27T20:18:37.337Z,97461.58
2018-06-27T20:21:04.479Z,97464.34
2018-06-27T20:23:31.678Z,97463.25
2018-06-27T20:25:58.797Z,97463.47
2018-06-27T20:28:25.924Z,97463.37
2018-06-27T20:30:53.313Z,97465.06
2018-06-27T20:33:20.468Z,97474.07
2018-06-27T20:35:47.657Z,97473.76
2018-06-27T20:38:14.865Z,97462.11
2018-06-27T20:40:42.039Z,97468.23
2018-06-27T20:43:09.279Z,97470.28
2018-06-27T20:45:36.434Z,97465.81
2018-06-27T20:48:03.710Z,97464.70
2018-06-27T20:50:30.843Z,97463.92
2018-06-27T20:52:59.009Z,97463.48
2018-06-27T20:55:26.256Z,97465.58
2018-06-27T20:57:53.497Z,97469.38
2018-06-27T21:00:20.737Z,97462.25
2018-06-27T21:02:48.006Z,97466.59
2018-06-27T21:05:15.131Z,97462.72
2018-06-27T21:07:42.335Z,97464.48
2018-06-27T21:10:09.522Z,97467.14
2018-06-27T21:12:36.689Z,97463.75
2018-06-27T21:15:04.193Z,97406.61
2018-06-27T21:17:31.352Z,97465.67
2018-06-27T21:19:58.878Z,97467.22
2018-06-27T21:22:26.050Z,97472.50
2018-06-27T21:24:53.180Z,97472.95
2018-06-27T21:27:20.327Z,97477.45
2018-06-27T21:29:47.507Z,97484.23
2018-06-27T21:32:14.696Z,97480.53
2018-06-27T21:34:41.904Z,97483.98
2018-06-27T21:37:09.020Z,97480.00
2018-06-27T21:39:36.144Z,97483.47
2018-06-27T21:42:03.337Z,97482.77
2018-06-27T21:44:30.517Z,97473.76
2018-06-27T21:46:57.693Z,97468.80
2018-06-27T21:49:24.826Z,97467.58
2018-06-27T21:51:51.992Z,97473.91
2018-06-27T21:54:19.146Z,97476.09
2018-06-27T21:56:46.245Z,97480.14
2018-06-27T21:59:13.387Z,97479.86
2018-06-27T22:01:41.693Z,97482.58
2018-06-27T22:04:08.848Z,97487.52
2018-06-27T22:06:35.997Z,97490.07
2018-06-27T22:09:05.152Z,97490.80
2018-06-27T22:11:32.277Z,97494.52
2018-06-27T22:13:59.387Z,97489.81
2018-06-27T22:16:26.513Z,97492.75
2018-06-27T22:18:53.688Z,97494.25
2018-06-27T22:21:20.798Z,97488.08
2018-06-27T22:23:47.940Z,97481.36
2018-06-27T22:26:15.101Z,97483.17
2018-06-27T22:28:42.256Z,97478.82
2018-06-27T22:31:09.751Z,97481.43
2018-06-27T22:33:37.213Z,97476.02
2018-06-27T22:36:04.467Z,97476.39
2018-06-27T22:38:31.624Z,97471.80
2018-06-27T22:40:58.778Z,97471.37
2018-06-27T22:43:25.905Z,97466.48
2018-06-27T22:45:53.071Z,97466.29
2018-06-27T22:48:20.225Z,97466.52
2018-06-27T22:50:47.430Z,97461.59
2018-06-27T22:53:14.526Z,97465.48
2018-06-27T22:55:41.683Z,97463.92
2018-06-27T22:58:08.820Z,97468.57
2018-06-27T23:00:35.944Z,97468.36
2018-06-27T23:03:03.132Z,97468.87
2018-06-27T23:05:30.351Z,97463.06
2018-06-27T23:07:57.485Z,97457.30
2018-06-27T23:10:24.620Z,97461.10
2018-06-27T23:12:51.753Z,97458.62
2018-06-27T23:15:18.905Z,97458.91
2018-06-27T23:17:46.056Z,97458.08
2018-06-27T23:20:13.163Z,97456.59
2018-06-27T23:22:43.209Z,97461.29
2018-06-27T23:25:10.417Z,97458.91
2018-06-27T23:27:37.589Z,97454.97
2018-06-27T23:30:05.208Z,97450.84
2018-06-27T23:32:32.349Z,97442.22
2018-06-27T23:34:59.441Z,97445.39
2018-06-27T23:37:26.577Z,97437.25
2018-06-27T23:39:53.701Z,97437.55
2018-06-27T23:42:20.901Z,97431.91
2018-06-27T23:44:48.084Z,97430.89
2018-06-27T23:47:15.184Z,97422.91
2018-06-27T23:49:42.476Z,97428.36
2018-06-27T23:52:09.508Z,97421.98
2018-06-27T23:54:36.593Z,97423.96
2018-06-27T23:57:03.773Z,97421.53
2018-06-27T23:59:30.907Z,97412.38
